createdAt,value
2019-03-10T00:02:04.359Z,2.10
2019-03-10T00:04:43.667Z,2.50
2019-03-10T00:07:18.788Z,2.50
2019-03-10T00:09:55.453Z,2.40
2019-03-10T00:12:29.013Z,2.90
2019-03-10T00:14:59.861Z,2.20
2019-03-10T00:17:34.434Z,2.30
2019-03-10T00:20:04.769Z,2.40
2019-03-10T00:22:48.252Z,2.40
2019-03-10T00:25:18.748Z,2.47
2019-03-10T00:27:50.729Z,2.40
2019-03-10T00:30:20.792Z,2.17
2019-03-10T00:32:50.963Z,2.53
2019-03-10T00:35:21.206Z,3.23
2019-03-10T00:37:51.593Z,2.40
2019-03-10T00:41:15.120Z,2.57
2019-03-10T00:44:39.519Z,2.83
2019-03-10T00:47:49.134Z,2.30
2019-03-10T00:51:20.752Z,2.27
2019-03-10T00:53:50.748Z,2.43
2019-03-10T00:56:21.166Z,2.40
2019-03-10T00:58:52.040Z,3.17
2019-03-10T01:01:22.266Z,3.23
2019-03-10T01:03:52.288Z,2.47
2019-03-10T01:06:22.686Z,2.67
2019-03-10T01:08:52.664Z,3.67
2019-03-10T01:11:22.853Z,3.03
2019-03-10T01:13:52.889Z,3.33
2019-03-10T01:16:23.296Z,3.10
2019-03-10T01:18:55.545Z,3.00
2019-03-10T01:21:27.393Z,2.57
2019-03-10T01:23:57.424Z,2.70
2019-03-10T01:26:27.579Z,3.57
2019-03-10T01:28:57.577Z,3.87
2019-03-10T01:31:38.626Z,3.40
2019-03-10T01:34:57.608Z,3.43
2019-03-10T01:37:27.637Z,3.77
2019-03-10T01:39:57.947Z,3.57
2019-03-10T01:42:27.941Z,3.27
2019-03-10T01:45:00.540Z,3.67
2019-03-10T01:47:30.962Z,3.40
2019-03-10T01:50:01.969Z,2.93
2019-03-10T01:52:32.027Z,3.37
2019-03-10T01:55:02.506Z,3.03
2019-03-10T01:57:32.497Z,3.77
2019-03-10T02:00:02.718Z,3.30
2019-03-10T02:02:32.828Z,3.27
2019-03-10T02:05:03.730Z,3.20
2019-03-10T02:07:34.019Z,3.73
2019-03-10T02:10:04.958Z,2.70
2019-03-10T02:12:35.278Z,3.30
2019-03-10T02:15:06.740Z,2.77
2019-03-10T02:17:36.905Z,3.30
2019-03-10T02:20:08.545Z,3.27
2019-03-10T02:22:38.573Z,3.20
2019-03-10T02:25:09.086Z,3.27
2019-03-10T02:27:39.177Z,3.60
2019-03-10T02:30:13.130Z,3.60
2019-03-10T02:32:43.227Z,4.00
2019-03-10T02:35:13.512Z,3.53
2019-03-10T02:37:43.633Z,3.20
2019-03-10T02:40:14.234Z,4.00
2019-03-10T02:42:44.750Z,4.10
2019-03-10T02:45:15.125Z,3.47
2019-03-10T02:47:45.138Z,3.60
2019-03-10T02:50:15.620Z,4.17
2019-03-10T02:52:45.642Z,3.23
2019-03-10T02:55:15.833Z,3.63
2019-03-10T02:57:46.424Z,3.17
2019-03-10T03:00:16.926Z,3.70
2019-03-10T03:02:47.136Z,3.23
2019-03-10T03:05:17.336Z,2.77
2019-03-10T03:07:47.315Z,3.00
2019-03-10T03:10:17.474Z,2.70
2019-03-10T03:12:47.685Z,3.80
2019-03-10T03:15:17.677Z,3.77
2019-03-10T03:17:47.762Z,3.00
2019-03-10T03:20:17.799Z,3.40
2019-03-10T03:22:48.429Z,3.90
2019-03-10T03:25:18.477Z,3.70
2019-03-10T03:27:48.470Z,3.07
2019-03-10T03:30:19.365Z,2.90
2019-03-10T03:32:49.460Z,3.33
2019-03-10T03:36:02.174Z,2.73
2019-03-10T03:38:45.442Z,3.00
2019-03-10T03:41:17.802Z,3.23
2019-03-10T03:43:48.429Z,3.40
2019-03-10T03:46:18.377Z,2.90
2019-03-10T03:48:48.588Z,3.63
2019-03-10T03:51:19.122Z,2.97
2019-03-10T03:53:49.320Z,2.77
2019-03-10T03:56:19.601Z,3.13
2019-03-10T03:58:49.589Z,2.80
2019-03-10T04:01:32.636Z,3.57
2019-03-10T04:04:02.773Z,3.00
2019-03-10T04:06:32.918Z,3.20
2019-03-10T04:09:02.906Z,3.80
2019-03-10T04:11:32.921Z,3.10
2019-03-10T04:14:03.427Z,3.17
2019-03-10T04:16:33.592Z,2.97
2019-03-10T04:19:03.690Z,3.00
2019-03-10T04:21:33.681Z,2.80
2019-03-10T04:24:03.688Z,2.87
2019-03-10T04:26:34.034Z,3.10
2019-03-10T04:29:04.038Z,2.60
2019-03-10T04:31:34.375Z,3.00
2019-03-10T04:34:04.441Z,2.90
2019-03-10T04:36:34.435Z,3.00
2019-03-10T04:39:05.381Z,3.40
2019-03-10T04:41:35.459Z,2.67
2019-03-10T04:44:05.480Z,2.63
2019-03-10T04:46:35.491Z,2.80
2019-03-10T04:49:05.566Z,2.70
2019-03-10T04:51:36.138Z,2.70
2019-03-10T04:54:06.210Z,3.10
2019-03-10T04:56:43.378Z,2.67
2019-03-10T04:59:13.376Z,3.03
2019-03-10T05:01:43.482Z,2.80
2019-03-10T05:04:13.521Z,3.17
2019-03-10T05:06:43.517Z,3.50
2019-03-10T05:09:13.527Z,2.70
2019-03-10T05:11:43.633Z,3.00
2019-03-10T05:14:13.700Z,2.90
2019-03-10T05:16:44.293Z,3.23
2019-03-10T05:19:14.381Z,3.13
2019-03-10T05:21:44.462Z,3.00
2019-03-10T05:24:16.040Z,3.10
2019-03-10T05:26:46.125Z,3.33
2019-03-10T05:29:16.186Z,3.33
2019-03-10T05:31:46.198Z,3.73
2019-03-10T05:34:16.280Z,2.67
2019-03-10T05:36:46.665Z,3.70
2019-03-10T05:39:16.705Z,4.00
2019-03-10T05:41:47.365Z,3.30
2019-03-10T05:44:17.410Z,3.43
2019-03-10T05:46:47.467Z,3.70
2019-03-10T05:49:17.539Z,3.03
2019-03-10T05:51:47.608Z,3.93
2019-03-10T05:54:17.691Z,3.20
2019-03-10T05:56:47.688Z,2.60
2019-03-10T05:59:17.672Z,3.07
2019-03-10T06:01:47.648Z,3.87
2019-03-10T06:04:18.094Z,3.43
2019-03-10T06:06:48.096Z,4.10
2019-03-10T06:09:18.117Z,3.20
2019-03-10T06:11:48.142Z,3.70
2019-03-10T06:14:18.144Z,3.40
2019-03-10T06:16:48.121Z,3.70
2019-03-10T06:19:19.202Z,2.80
2019-03-10T06:21:49.215Z,4.37
2019-03-10T06:24:19.376Z,3.87
2019-03-10T06:26:49.389Z,4.60
2019-03-10T06:29:19.357Z,3.80
2019-03-10T06:31:49.356Z,4.83
2019-03-10T06:34:19.340Z,3.83
2019-03-10T06:36:49.345Z,4.50
2019-03-10T06:39:19.909Z,3.80
2019-03-10T06:41:49.920Z,3.83
2019-03-10T06:44:21.147Z,4.40
2019-03-10T06:46:51.269Z,3.77
2019-03-10T06:49:21.296Z,4.63
2019-03-10T06:51:51.320Z,3.83
2019-03-10T06:54:21.309Z,4.00
2019-03-10T06:56:51.297Z,4.30
2019-03-10T06:59:21.345Z,3.30
2019-03-10T07:01:51.480Z,3.73
2019-03-10T07:04:21.559Z,3.50
2019-03-10T07:06:52.095Z,2.87
2019-03-10T07:09:22.098Z,3.40
2019-03-10T07:11:52.348Z,3.80
2019-03-10T07:14:22.417Z,4.30
2019-03-10T07:16:52.429Z,3.83
2019-03-10T07:19:22.413Z,3.50
2019-03-10T07:21:52.476Z,4.17
2019-03-10T07:24:22.481Z,3.47
2019-03-10T07:26:52.505Z,3.77
2019-03-10T07:29:35.263Z,3.60
2019-03-10T07:32:24.986Z,4.00
2019-03-10T07:35:17.139Z,5.00
2019-03-10T07:38:04.740Z,6.50
2019-03-10T07:40:54.134Z,6.80
2019-03-10T07:43:38.670Z,6.00
2019-03-10T07:46:23.215Z,7.27
2019-03-10T07:49:12.140Z,7.13
2019-03-10T07:52:00.984Z,7.00
2019-03-10T07:54:50.011Z,7.03
2019-03-10T07:57:28.793Z,6.77
2019-03-10T08:00:16.464Z,5.60
2019-03-10T08:03:05.353Z,7.20
2019-03-10T08:06:06.320Z,7.40
2019-03-10T08:09:04.167Z,6.40
2019-03-10T08:11:59.200Z,7.43
2019-03-10T08:14:46.710Z,6.10
2019-03-10T08:17:35.677Z,7.83
2019-03-10T08:20:33.910Z,6.10
2019-03-10T08:23:22.900Z,6.70
2019-03-10T08:26:30.002Z,6.70
2019-03-10T08:29:19.258Z,6.30
2019-03-10T08:32:04.173Z,6.87
2019-03-10T08:34:55.748Z,6.30
2019-03-10T08:37:41.488Z,5.80
2019-03-10T08:40:30.713Z,6.23
2019-03-10T08:43:16.929Z,5.87
2019-03-10T08:46:11.534Z,6.50
2019-03-10T08:48:50.467Z,6.57
2019-03-10T08:51:39.941Z,6.67
2019-03-10T08:54:26.099Z,7.10
2019-03-10T08:57:17.949Z,8.10
2019-03-10T09:00:24.817Z,6.83
2019-03-10T09:03:14.548Z,6.93
2019-03-10T09:05:59.851Z,6.70
2019-03-10T09:08:40.849Z,7.60
2019-03-10T09:11:37.467Z,6.83
2019-03-10T09:14:38.213Z,7.73
2019-03-10T09:17:32.053Z,7.87
2019-03-10T09:20:10.861Z,7.63
2019-03-10T09:22:51.485Z,7.80
2019-03-10T09:25:51.646Z,8.27
2019-03-10T09:28:39.146Z,8.30
2019-03-10T09:31:20.654Z,7.47
2019-03-10T09:34:07.549Z,7.43
2019-03-10T09:36:55.044Z,8.27
2019-03-10T09:39:48.322Z,8.00
2019-03-10T09:42:39.980Z,7.57
2019-03-10T09:45:38.837Z,8.10
2019-03-10T09:48:19.790Z,7.90
2019-03-10T09:51:04.668Z,8.20
2019-03-10T09:53:51.937Z,8.50
2019-03-10T09:56:53.113Z,8.10
2019-03-10T09:59:33.349Z,7.03
2019-03-10T10:02:25.116Z,8.10
2019-03-10T10:05:03.349Z,6.90
2019-03-10T10:07:58.250Z,8.43
2019-03-10T10:10:47.210Z,7.60
2019-03-10T10:13:50.782Z,7.10
2019-03-10T10:16:39.644Z,6.40
2019-03-10T10:19:46.813Z,6.23
2019-03-10T10:22:27.557Z,7.07
2019-03-10T10:25:11.882Z,7.27
2019-03-10T10:28:08.931Z,6.87
2019-03-10T10:30:57.723Z,7.57
2019-03-10T10:33:59.391Z,7.33
2019-03-10T10:36:54.346Z,7.83
2019-03-10T10:39:52.217Z,7.27
2019-03-10T10:42:58.960Z,6.70
2019-03-10T10:46:02.805Z,6.07
2019-03-10T10:48:41.093Z,5.57
2019-03-10T10:51:19.221Z,7.03
2019-03-10T10:54:07.209Z,6.13
2019-03-10T10:56:53.221Z,7.13
2019-03-10T10:59:50.944Z,6.70
2019-03-10T11:02:42.961Z,6.70
2019-03-10T11:05:21.197Z,6.60
2019-03-10T11:08:00.114Z,7.10
2019-03-10T11:10:47.578Z,6.67
2019-03-10T11:13:35.248Z,7.20
2019-03-10T11:16:30.506Z,6.23
2019-03-10T11:19:15.178Z,5.97
2019-03-10T11:22:10.048Z,7.10
2019-03-10T11:24:47.527Z,6.27
2019-03-10T11:27:31.860Z,6.20
2019-03-10T11:30:23.796Z,6.67
2019-03-10T11:33:11.601Z,6.73
2019-03-10T11:35:57.729Z,6.67
2019-03-10T11:38:45.224Z,7.50
2019-03-10T11:41:36.922Z,6.47
2019-03-10T11:44:25.990Z,6.50
2019-03-10T11:47:13.640Z,6.80
2019-03-10T11:50:05.689Z,7.23
2019-03-10T11:52:54.643Z,7.40
2019-03-10T11:55:51.433Z,6.50
2019-03-10T11:58:58.768Z,5.57
2019-03-10T12:01:53.533Z,7.00
2019-03-10T12:04:45.391Z,7.53
2019-03-10T12:07:37.186Z,7.90
2019-03-10T12:10:08.536Z,8.13
2019-03-10T12:12:38.541Z,8.57
2019-03-10T12:15:09.677Z,7.53
2019-03-10T12:17:40.600Z,8.37
2019-03-10T12:20:11.100Z,6.93
2019-03-10T12:22:41.389Z,7.60
2019-03-10T12:25:11.733Z,8.57
2019-03-10T12:27:41.805Z,8.83
2019-03-10T12:30:12.597Z,8.17
2019-03-10T12:32:42.628Z,8.53
2019-03-10T12:35:12.873Z,9.00
2019-03-10T12:37:42.996Z,9.33
2019-03-10T12:40:13.874Z,8.73
2019-03-10T12:42:51.357Z,29.17
2019-03-10T12:45:21.348Z,9.23
2019-03-10T12:47:51.393Z,10.70
2019-03-10T12:50:22.142Z,8.70
2019-03-10T12:52:52.263Z,25.83
2019-03-10T12:55:22.257Z,11.13
2019-03-10T12:57:57.033Z,10.17
2019-03-10T13:00:27.166Z,13.00
2019-03-10T13:02:57.558Z,67.43
2019-03-10T13:05:28.375Z,9.30
2019-03-10T13:07:58.929Z,9.25
2019-03-10T13:10:29.674Z,9.87
2019-03-10T13:12:59.813Z,9.77
2019-03-10T13:15:29.918Z,9.33
2019-03-10T13:18:00.030Z,9.37
2019-03-10T13:20:30.101Z,9.30
2019-03-10T13:23:00.236Z,8.90
2019-03-10T13:25:31.189Z,9.57
2019-03-10T13:28:01.291Z,8.70
2019-03-10T13:30:31.310Z,8.97
2019-03-10T13:33:02.211Z,9.40
2019-03-10T13:35:32.292Z,11.43
2019-03-10T13:38:02.443Z,10.13
2019-03-10T13:40:32.733Z,9.10
2019-03-10T13:43:02.935Z,9.37
2019-03-10T13:45:33.108Z,9.50
2019-03-10T13:48:04.410Z,10.10
2019-03-10T13:50:35.468Z,8.80
2019-03-10T13:53:05.625Z,9.73
2019-03-10T13:55:37.661Z,8.57
2019-03-10T13:58:07.857Z,9.90
2019-03-10T14:00:37.958Z,17.43
2019-03-10T14:03:08.214Z,10.90
2019-03-10T14:05:38.661Z,9.17
2019-03-10T14:08:08.909Z,10.20
2019-03-10T14:10:39.357Z,8.70
2019-03-10T14:13:09.591Z,8.83
2019-03-10T14:15:39.629Z,7.73
2019-03-10T14:18:09.792Z,9.00
2019-03-10T14:20:41.094Z,8.33
2019-03-10T14:23:11.401Z,8.03
2019-03-10T14:25:41.700Z,7.33
2019-03-10T14:28:22.209Z,9.13
2019-03-10T14:30:52.374Z,7.20
2019-03-10T14:33:22.441Z,5.97
2019-03-10T14:35:52.550Z,7.63
2019-03-10T14:38:23.022Z,6.80
2019-03-10T14:40:53.201Z,6.33
2019-03-10T14:43:23.363Z,6.23
2019-03-10T14:45:53.396Z,6.47
2019-03-10T14:48:23.506Z,7.37
2019-03-10T14:50:53.517Z,7.10
2019-03-10T14:53:23.489Z,7.63
2019-03-10T14:55:53.456Z,7.27
2019-03-10T14:58:23.675Z,6.30
2019-03-10T15:00:53.900Z,5.40
2019-03-10T15:03:23.861Z,7.57
2019-03-10T15:05:54.163Z,5.57
2019-03-10T15:08:24.378Z,4.90
2019-03-10T15:10:54.580Z,5.50
2019-03-10T15:13:25.026Z,5.20
2019-03-10T15:15:55.079Z,4.50
2019-03-10T15:18:25.257Z,5.00
2019-03-10T15:20:55.340Z,4.50
2019-03-10T15:23:25.378Z,5.03
2019-03-10T15:25:55.373Z,4.50
2019-03-10T15:28:25.341Z,4.70
2019-03-10T15:30:55.481Z,4.30
2019-03-10T15:33:25.618Z,4.40
2019-03-10T15:35:55.673Z,5.17
2019-03-10T15:38:26.248Z,4.60
2019-03-10T15:40:56.286Z,4.20
2019-03-10T15:43:26.708Z,4.60
2019-03-10T15:45:56.753Z,5.43
2019-03-10T15:48:26.789Z,4.57
2019-03-10T15:50:57.928Z,5.73
2019-03-10T15:53:27.899Z,4.90
2019-03-10T15:55:57.944Z,4.40
2019-03-10T15:58:27.985Z,5.20
2019-03-10T16:00:58.706Z,4.50
2019-03-10T16:03:30.457Z,4.70
2019-03-10T16:06:00.512Z,5.27
2019-03-10T16:08:30.561Z,4.67
2019-03-10T16:11:00.616Z,5.67
2019-03-10T16:13:31.072Z,5.80
2019-03-10T16:16:03.981Z,9.73
2019-03-10T16:18:34.070Z,10.57
2019-03-10T16:21:04.136Z,10.50
2019-03-10T16:23:34.273Z,10.03
2019-03-10T16:26:04.617Z,8.20
2019-03-10T16:28:35.141Z,8.50
2019-03-10T16:31:05.372Z,9.37
2019-03-10T16:33:35.765Z,10.57
2019-03-10T16:36:06.580Z,10.43
2019-03-10T16:38:38.025Z,13.80
2019-03-10T16:41:08.066Z,15.00
2019-03-10T16:43:38.383Z,18.63
2019-03-10T16:46:09.808Z,23.00
2019-03-10T16:48:39.972Z,19.73
2019-03-10T16:51:10.222Z,20.17
2019-03-10T16:53:42.973Z,18.90
2019-03-10T16:56:13.209Z,18.77
2019-03-10T16:58:43.496Z,21.53
2019-03-10T17:01:13.637Z,23.17
2019-03-10T17:03:43.683Z,21.57
2019-03-10T17:06:13.983Z,20.00
2019-03-10T17:08:43.953Z,22.97
2019-03-10T17:11:14.073Z,24.47
2019-03-10T17:13:44.567Z,24.93
2019-03-10T17:16:16.363Z,23.93
2019-03-10T17:18:46.541Z,22.07
2019-03-10T17:21:17.637Z,21.80
2019-03-10T17:23:47.749Z,22.37
2019-03-10T17:26:18.986Z,20.67
2019-03-10T17:28:48.994Z,22.10
2019-03-10T17:31:20.186Z,22.37
2019-03-10T17:33:50.320Z,23.63
2019-03-10T17:36:20.369Z,22.10
2019-03-10T17:38:50.453Z,22.90
2019-03-10T17:41:20.833Z,25.63
2019-03-10T17:43:50.845Z,23.57
2019-03-10T17:46:20.997Z,22.10
2019-03-10T17:48:51.369Z,22.27
2019-03-10T17:51:21.529Z,21.37
2019-03-10T17:53:52.596Z,22.00
2019-03-10T17:56:23.392Z,19.80
2019-03-10T17:58:53.538Z,19.87
2019-03-10T18:01:23.973Z,19.80
2019-03-10T18:03:54.040Z,22.23
2019-03-10T18:06:24.152Z,20.23
2019-03-10T18:08:54.613Z,18.93
2019-03-10T18:11:24.979Z,20.60
2019-03-10T18:13:55.429Z,20.97
2019-03-10T18:16:26.384Z,21.63
2019-03-10T18:18:56.933Z,21.70
2019-03-10T18:21:27.186Z,21.83
2019-03-10T18:23:57.271Z,23.70
2019-03-10T18:26:27.298Z,21.27
2019-03-10T18:28:58.642Z,21.90
2019-03-10T18:31:28.826Z,22.47
2019-03-10T18:33:59.367Z,20.97
2019-03-10T18:36:29.921Z,21.90
2019-03-10T18:39:00.128Z,22.57
2019-03-10T18:41:30.457Z,20.60
2019-03-10T18:44:00.510Z,21.83
2019-03-10T18:46:30.583Z,21.97
2019-03-10T18:49:03.481Z,18.50
2019-03-10T18:51:34.729Z,18.20
2019-03-10T18:54:04.993Z,16.77
2019-03-10T18:56:35.618Z,16.37
2019-03-10T18:59:05.840Z,18.10
2019-03-10T19:01:35.948Z,16.60
2019-03-10T19:04:06.242Z,15.53
2019-03-10T19:06:37.799Z,14.77
2019-03-10T19:09:08.734Z,13.40
2019-03-10T19:11:38.847Z,15.00
2019-03-10T19:14:10.002Z,13.57
2019-03-10T19:16:40.204Z,12.27
2019-03-10T19:19:10.373Z,13.60
2019-03-10T19:21:40.400Z,12.10
2019-03-10T19:24:10.621Z,11.10
2019-03-10T19:26:40.894Z,11.43
2019-03-10T19:29:10.936Z,12.67
2019-03-10T19:31:41.592Z,11.50
2019-03-10T19:34:12.037Z,13.13
2019-03-10T19:36:42.676Z,13.40
2019-03-10T19:39:12.773Z,14.10
2019-03-10T19:41:42.973Z,13.20
2019-03-10T19:44:13.339Z,14.00
2019-03-10T19:46:44.010Z,13.40
2019-03-10T19:49:14.058Z,13.30
2019-03-10T19:51:44.266Z,18.60
2019-03-10T19:54:14.470Z,16.57
2019-03-10T19:56:46.127Z,16.50
2019-03-10T19:59:18.481Z,22.97
2019-03-10T20:01:48.487Z,24.23
2019-03-10T20:04:18.781Z,26.33
2019-03-10T20:06:48.884Z,22.10
2019-03-10T20:09:20.347Z,25.60
2019-03-10T20:11:52.933Z,23.63
2019-03-10T20:14:23.050Z,25.10
2019-03-10T20:16:53.121Z,26.57
2019-03-10T20:19:23.153Z,22.43
2019-03-10T20:21:53.781Z,25.40
2019-03-10T20:24:27.048Z,27.10
2019-03-10T20:26:57.219Z,30.43
2019-03-10T20:29:27.926Z,28.10
2019-03-10T20:31:58.488Z,33.83
2019-03-10T20:34:28.668Z,36.10
2019-03-10T20:36:59.336Z,34.30
2019-03-10T20:39:31.424Z,36.60
2019-03-10T20:42:05.424Z,34.50
2019-03-10T20:44:37.740Z,32.03
2019-03-10T20:47:07.980Z,32.03
2019-03-10T20:49:39.543Z,28.20
2019-03-10T20:52:09.914Z,32.00
2019-03-10T20:54:44.510Z,32.27
2019-03-10T20:57:15.840Z,32.00
2019-03-10T20:59:46.535Z,31.53
2019-03-10T21:02:17.666Z,23.77
2019-03-10T21:04:51.073Z,27.33
2019-03-10T21:07:21.379Z,29.50
2019-03-10T21:10:00.862Z,27.40
2019-03-10T21:12:40.046Z,23.03
2019-03-10T21:15:05.692Z,22.30
2019-03-10T21:17:37.398Z,24.87
2019-03-10T21:20:12.586Z,21.80
2019-03-10T21:22:44.168Z,24.63
2019-03-10T21:25:19.981Z,30.87
2019-03-10T21:27:50.027Z,23.87
2019-03-10T21:30:22.129Z,25.60
2019-03-10T21:32:56.916Z,26.13
2019-03-10T21:35:33.616Z,25.50
2019-03-10T21:38:04.456Z,25.80
2019-03-10T21:40:34.897Z,25.40
2019-03-10T21:43:06.089Z,23.63
2019-03-10T21:45:37.958Z,25.93
2019-03-10T21:48:08.451Z,26.33
2019-03-10T21:50:40.231Z,26.23
2019-03-10T21:53:12.920Z,27.23
2019-03-10T21:55:43.729Z,24.83
2019-03-10T21:58:13.972Z,21.93
2019-03-10T22:00:46.958Z,18.53
2019-03-10T22:03:17.349Z,25.47
2019-03-10T22:05:47.913Z,27.00
2019-03-10T22:08:36.472Z,24.40
2019-03-10T22:11:07.248Z,23.03
2019-03-10T22:13:46.363Z,23.00
2019-03-10T22:16:10.342Z,23.13
2019-03-10T22:18:40.430Z,23.50
2019-03-10T22:21:10.436Z,21.83
2019-03-10T22:23:40.532Z,19.90
2019-03-10T22:26:10.767Z,22.10
2019-03-10T22:28:43.242Z,22.10
2019-03-10T22:31:13.518Z,22.00
2019-03-10T22:33:44.080Z,21.43
2019-03-10T22:36:14.437Z,21.30
2019-03-10T22:38:44.519Z,23.17
2019-03-10T22:41:18.680Z,21.67
2019-03-10T22:43:49.010Z,19.73
2019-03-10T22:46:20.300Z,19.73
2019-03-10T22:48:50.855Z,17.90
2019-03-10T22:51:22.962Z,16.90
2019-03-10T22:53:53.186Z,19.30
2019-03-10T22:56:23.386Z,18.93
2019-03-10T22:58:53.551Z,18.93
2019-03-10T23:01:24.675Z,17.50
2019-03-10T23:03:54.829Z,17.43
2019-03-10T23:06:25.359Z,18.00
2019-03-10T23:08:55.783Z,21.30
2019-03-10T23:11:26.106Z,20.33
2019-03-10T23:13:56.448Z,19.23
2019-03-10T23:16:27.538Z,18.43
2019-03-10T23:18:57.720Z,17.70
2019-03-10T23:21:27.808Z,20.03
2019-03-10T23:24:00.546Z,20.00
2019-03-10T23:26:33.068Z,18.30
2019-03-10T23:29:04.284Z,18.63
2019-03-10T23:31:34.324Z,16.07
2019-03-10T23:34:06.148Z,16.80
2019-03-10T23:36:39.857Z,16.80
2019-03-10T23:39:12.413Z,17.20
2019-03-10T23:41:42.627Z,15.53
2019-03-10T23:44:12.991Z,15.87
2019-03-10T23:46:43.390Z,15.20
2019-03-10T23:49:13.701Z,15.00
2019-03-10T23:51:43.885Z,14.50
2019-03-10T23:54:14.380Z,14.87
2019-03-10T23:56:44.572Z,13.07
2019-03-10T23:59:15.873Z,16.10
